sensor_id;sensor_type;location;lat;lon;timestamp;temperature;humidity
20155;DHT22;10238;49.556;10.956;2024-01-25T00:02:40;7.00;99.90
20155;DHT22;10238;49.556;10.956;2024-01-25T00:05:27;7.00;99.90
20155;DHT22;10238;49.556;10.956;2024-01-25T00:08:16;7.00;99.90
20155;DHT22;10238;49.556;10.956;2024-01-25T00:11:04;6.90;99.90
20155;DHT22;10238;49.556;10.956;2024-01-25T00:13:53;6.90;99.90
20155;DHT22;10238;49.556;10.956;2024-01-25T00:16:41;6.90;99.90
20155;DHT22;10238;49.556;10.956;2024-01-25T00:19:28;6.90;99.90
20155;DHT22;10238;49.556;10.956;2024-01-25T00:22:16;6.90;99.90
20155;DHT22;10238;49.556;10.956;2024-01-25T00:25:06;6.90;99.90
20155;DHT22;10238;49.556;10.956;2024-01-25T00:27:54;6.90;99.90
20155;DHT22;10238;49.556;10.956;2024-01-25T00:30:42;6.90;99.90
20155;DHT22;10238;49.556;10.956;2024-01-25T00:33:29;7.00;99.90
20155;DHT22;10238;49.556;10.956;2024-01-25T00:36:19;6.90;99.90
20155;DHT22;10238;49.556;10.956;2024-01-25T00:39:08;6.90;99.90
20155;DHT22;10238;49.556;10.956;2024-01-25T00:42:02;7.00;99.90
20155;DHT22;10238;49.556;10.956;2024-01-25T00:44:52;6.90;99.90
20155;DHT22;10238;49.556;10.956;2024-01-25T00:47:41;6.90;99.90
20155;DHT22;10238;49.556;10.956;2024-01-25T00:50:29;6.90;99.90
20155;DHT22;10238;49.556;10.956;2024-01-25T00:53:19;6.90;99.90
20155;DHT22;10238;49.556;10.956;2024-01-25T00:56:08;6.90;99.90
20155;DHT22;10238;49.556;10.956;2024-01-25T00:58:59;6.90;99.90
20155;DHT22;10238;49.556;10.956;2024-01-25T01:01:48;6.90;99.90
20155;DHT22;10238;49.556;10.956;2024-01-25T01:04:40;6.90;99.90
20155;DHT22;10238;49.556;10.956;2024-01-25T01:07:34;6.90;99.90
20155;DHT22;10238;49.556;10.956;2024-01-25T01:10:22;6.90;99.90
20155;DHT22;10238;49.556;10.956;2024-01-25T01:13:11;6.90;99.90
20155;DHT22;10238;49.556;10.956;2024-01-25T01:16:00;6.90;99.90
20155;DHT22;10238;49.556;10.956;2024-01-25T01:18:47;6.90;99.90
20155;DHT22;10238;49.556;10.956;2024-01-25T01:21:36;6.90;99.90
20155;DHT22;10238;49.556;10.956;2024-01-25T01:24:25;6.90;99.90
20155;DHT22;10238;49.556;10.956;2024-01-25T01:27:12;6.80;99.90
20155;DHT22;10238;49.556;10.956;2024-01-25T01:30:00;6.90;99.90
20155;DHT22;10238;49.556;10.956;2024-01-25T01:32:49;6.90;99.90
20155;DHT22;10238;49.556;10.956;2024-01-25T01:35:37;6.90;99.90
20155;DHT22;10238;49.556;10.956;2024-01-25T01:38:25;6.90;99.90
20155;DHT22;10238;49.556;10.956;2024-01-25T01:41:12;6.90;99.90
20155;DHT22;10238;49.556;10.956;2024-01-25T01:44:00;6.90;99.90
20155;DHT22;10238;49.556;10.956;2024-01-25T01:46:47;6.90;99.90
20155;DHT22;10238;49.556;10.956;2024-01-25T01:49:37;6.90;99.90
20155;DHT22;10238;49.556;10.956;2024-01-25T01:52:25;6.90;99.90
20155;DHT22;10238;49.556;10.956;2024-01-25T01:55:15;6.90;99.90
20155;DHT22;10238;49.556;10.956;2024-01-25T01:58:06;6.90;99.90
20155;DHT22;10238;49.556;10.956;2024-01-25T02:00:55;6.90;99.90
20155;DHT22;10238;49.556;10.956;2024-01-25T02:03:45;6.90;99.90
20155;DHT22;10238;49.556;10.956;2024-01-25T02:06:37;6.80;99.90
20155;DHT22;10238;49.556;10.956;2024-01-25T02:09:26;6.80;99.90
20155;DHT22;10238;49.556;10.956;2024-01-25T02:12:15;6.80;99.90
20155;DHT22;10238;49.556;10.956;2024-01-25T02:15:04;6.80;99.90
20155;DHT22;10238;49.556;10.956;2024-01-25T02:17:52;6.80;99.90
20155;DHT22;10238;49.556;10.956;2024-01-25T02:20:40;6.90;99.90
20155;DHT22;10238;49.556;10.956;2024-01-25T02:23:29;6.90;99.90
20155;DHT22;10238;49.556;10.956;2024-01-25T02:26:17;6.90;99.90
20155;DHT22;10238;49.556;10.956;2024-01-25T02:29:05;6.90;99.90
20155;DHT22;10238;49.556;10.956;2024-01-25T02:31:54;6.90;99.90
20155;DHT22;10238;49.556;10.956;2024-01-25T02:34:41;6.90;99.90
20155;DHT22;10238;49.556;10.956;2024-01-25T02:37:29;6.90;99.90
20155;DHT22;10238;49.556;10.956;2024-01-25T02:40:19;6.90;99.90
20155;DHT22;10238;49.556;10.956;2024-01-25T02:43:07;6.90;99.90
20155;DHT22;10238;49.556;10.956;2024-01-25T02:45:55;6.90;99.90
20155;DHT22;10238;49.556;10.956;2024-01-25T02:48:42;6.90;99.90
20155;DHT22;10238;49.556;10.956;2024-01-25T02:51:32;6.90;99.90
20155;DHT22;10238;49.556;10.956;2024-01-25T02:54:20;6.90;99.90
20155;DHT22;10238;49.556;10.956;2024-01-25T02:57:10;6.90;99.90
20155;DHT22;10238;49.556;10.956;2024-01-25T02:59:58;6.90;99.90
20155;DHT22;10238;49.556;10.956;2024-01-25T03:02:46;6.90;99.90
20155;DHT22;10238;49.556;10.956;2024-01-25T03:05:34;6.90;99.90
20155;DHT22;10238;49.556;10.956;2024-01-25T03:08:22;6.90;99.90
20155;DHT22;10238;49.556;10.956;2024-01-25T03:11:09;6.80;99.90
20155;DHT22;10238;49.556;10.956;2024-01-25T03:14:01;6.80;99.90
20155;DHT22;10238;49.556;10.956;2024-01-25T03:16:48;6.80;99.90
20155;DHT22;10238;49.556;10.956;2024-01-25T03:19:36;6.80;99.90
20155;DHT22;10238;49.556;10.956;2024-01-25T03:22:24;6.70;99.90
20155;DHT22;10238;49.556;10.956;2024-01-25T03:25:11;6.70;99.90
20155;DHT22;10238;49.556;10.956;2024-01-25T03:28:00;6.70;99.90
20155;DHT22;10238;49.556;10.956;2024-01-25T03:30:50;6.70;99.90
20155;DHT22;10238;49.556;10.956;2024-01-25T03:33:38;6.70;99.90
20155;DHT22;10238;49.556;10.956;2024-01-25T03:36:26;6.70;99.90
20155;DHT22;10238;49.556;10.956;2024-01-25T03:39:13;6.70;99.90
20155;DHT22;10238;49.556;10.956;2024-01-25T03:42:01;6.80;99.90
20155;DHT22;10238;49.556;10.956;2024-01-25T03:44:48;6.80;99.90
20155;DHT22;10238;49.556;10.956;2024-01-25T03:47:37;6.80;99.90
20155;DHT22;10238;49.556;10.956;2024-01-25T03:50:25;6.80;99.90
20155;DHT22;10238;49.556;10.956;2024-01-25T03:53:14;6.80;99.90
20155;DHT22;10238;49.556;10.956;2024-01-25T03:56:02;6.80;99.90
20155;DHT22;10238;49.556;10.956;2024-01-25T03:58:49;6.80;99.90
20155;DHT22;10238;49.556;10.956;2024-01-25T04:01:41;6.80;99.90
20155;DHT22;10238;49.556;10.956;2024-01-25T04:04:31;6.80;99.90
20155;DHT22;10238;49.556;10.956;2024-01-25T04:07:19;6.80;99.90
20155;DHT22;10238;49.556;10.956;2024-01-25T04:10:07;6.80;99.90
20155;DHT22;10238;49.556;10.956;2024-01-25T04:12:55;6.80;99.90
20155;DHT22;10238;49.556;10.956;2024-01-25T04:15:43;6.80;99.90
20155;DHT22;10238;49.556;10.956;2024-01-25T04:18:30;6.90;99.90
20155;DHT22;10238;49.556;10.956;2024-01-25T04:21:20;6.90;99.90
20155;DHT22;10238;49.556;10.956;2024-01-25T04:24:07;6.90;99.90
20155;DHT22;10238;49.556;10.956;2024-01-25T04:26:55;6.90;99.90
20155;DHT22;10238;49.556;10.956;2024-01-25T04:29:43;6.90;99.90
20155;DHT22;10238;49.556;10.956;2024-01-25T04:32:30;6.90;99.90
20155;DHT22;10238;49.556;10.956;2024-01-25T04:35:18;6.80;99.90
20155;DHT22;10238;49.556;10.956;2024-01-25T04:38:08;6.80;99.90
20155;DHT22;10238;49.556;10.956;2024-01-25T04:40:55;6.80;99.90
20155;DHT22;10238;49.556;10.956;2024-01-25T04:43:43;6.80;99.90
20155;DHT22;10238;49.556;10.956;2024-01-25T04:46:32;6.80;99.90
20155;DHT22;10238;49.556;10.956;2024-01-25T04:49:22;6.80;99.90
20155;DHT22;10238;49.556;10.956;2024-01-25T04:52:10;6.70;99.90
20155;DHT22;10238;49.556;10.956;2024-01-25T04:55:00;6.70;99.90
20155;DHT22;10238;49.556;10.956;2024-01-25T04:57:48;6.70;99.90
20155;DHT22;10238;49.556;10.956;2024-01-25T05:00:39;6.60;99.90
20155;DHT22;10238;49.556;10.956;2024-01-25T05:03:27;6.70;99.90
20155;DHT22;10238;49.556;10.956;2024-01-25T05:06:15;6.60;99.90
20155;DHT22;10238;49.556;10.956;2024-01-25T05:09:02;6.60;99.90
20155;DHT22;10238;49.556;10.956;2024-01-25T05:11:51;6.50;99.90
20155;DHT22;10238;49.556;10.956;2024-01-25T05:14:44;6.50;99.90
20155;DHT22;10238;49.556;10.956;2024-01-25T05:17:31;6.50;99.90
20155;DHT22;10238;49.556;10.956;2024-01-25T05:20:19;6.40;99.90
20155;DHT22;10238;49.556;10.956;2024-01-25T05:23:07;6.40;99.90
20155;DHT22;10238;49.556;10.956;2024-01-25T05:25:55;6.30;99.90
20155;DHT22;10238;49.556;10.956;2024-01-25T05:28:44;6.30;99.90
20155;DHT22;10238;49.556;10.956;2024-01-25T05:31:32;6.30;99.90
20155;DHT22;10238;49.556;10.956;2024-01-25T05:34:19;6.30;99.90
20155;DHT22;10238;49.556;10.956;2024-01-25T05:37:08;6.30;99.90
20155;DHT22;10238;49.556;10.956;2024-01-25T05:39:56;6.30;99.90
20155;DHT22;10238;49.556;10.956;2024-01-25T05:42:43;6.30;99.90
20155;DHT22;10238;49.556;10.956;2024-01-25T05:45:33;6.30;99.90
20155;DHT22;10238;49.556;10.956;2024-01-25T05:48:20;6.30;99.90
20155;DHT22;10238;49.556;10.956;2024-01-25T05:51:08;6.30;99.90
20155;DHT22;10238;49.556;10.956;2024-01-25T05:53:56;6.30;99.90
20155;DHT22;10238;49.556;10.956;2024-01-25T05:56:44;6.30;99.90
20155;DHT22;10238;49.556;10.956;2024-01-25T05:59:32;6.30;99.90
20155;DHT22;10238;49.556;10.956;2024-01-25T06:02:21;6.30;99.90
20155;DHT22;10238;49.556;10.956;2024-01-25T06:05:08;6.30;99.90
20155;DHT22;10238;49.556;10.956;2024-01-25T06:07:57;6.30;99.90
20155;DHT22;10238;49.556;10.956;2024-01-25T06:10:45;6.20;99.90
20155;DHT22;10238;49.556;10.956;2024-01-25T06:13:32;6.20;99.90
20155;DHT22;10238;49.556;10.956;2024-01-25T06:16:20;6.20;99.90
20155;DHT22;10238;49.556;10.956;2024-01-25T06:19:09;6.10;99.90
20155;DHT22;10238;49.556;10.956;2024-01-25T06:21:56;6.10;99.90
20155;DHT22;10238;49.556;10.956;2024-01-25T06:24:44;6.10;99.90
20155;DHT22;10238;49.556;10.956;2024-01-25T06:27:31;6.10;99.90
20155;DHT22;10238;49.556;10.956;2024-01-25T06:30:19;6.20;99.90
20155;DHT22;10238;49.556;10.956;2024-01-25T06:33:08;6.20;99.90
20155;DHT22;10238;49.556;10.956;2024-01-25T06:35:57;6.10;99.90
20155;DHT22;10238;49.556;10.956;2024-01-25T06:38:48;6.10;99.90
20155;DHT22;10238;49.556;10.956;2024-01-25T06:41:36;6.00;99.90
20155;DHT22;10238;49.556;10.956;2024-01-25T06:44:23;6.00;99.90
20155;DHT22;10238;49.556;10.956;2024-01-25T06:47:11;6.00;99.90
20155;DHT22;10238;49.556;10.956;2024-01-25T06:49:59;6.00;99.90
20155;DHT22;10238;49.556;10.956;2024-01-25T06:52:48;6.00;99.90
20155;DHT22;10238;49.556;10.956;2024-01-25T06:55:36;6.00;99.90
20155;DHT22;10238;49.556;10.956;2024-01-25T06:58:24;5.90;99.90
20155;DHT22;10238;49.556;10.956;2024-01-25T07:01:20;5.90;99.90
20155;DHT22;10238;49.556;10.956;2024-01-25T07:04:09;5.90;99.90
20155;DHT22;10238;49.556;10.956;2024-01-25T07:06:57;5.90;99.90
20155;DHT22;10238;49.556;10.956;2024-01-25T07:09:47;5.80;99.90
20155;DHT22;10238;49.556;10.956;2024-01-25T07:12:35;5.80;99.90
20155;DHT22;10238;49.556;10.956;2024-01-25T07:15:22;5.70;99.90
20155;DHT22;10238;49.556;10.956;2024-01-25T07:18:11;5.70;99.90
20155;DHT22;10238;49.556;10.956;2024-01-25T07:20:58;5.70;99.90
20155;DHT22;10238;49.556;10.956;2024-01-25T07:23:46;5.70;99.90
20155;DHT22;10238;49.556;10.956;2024-01-25T07:26:36;5.60;99.90
20155;DHT22;10238;49.556;10.956;2024-01-25T07:29:25;5.60;99.90
20155;DHT22;10238;49.556;10.956;2024-01-25T07:32:19;5.50;99.90
20155;DHT22;10238;49.556;10.956;2024-01-25T07:35:11;5.50;99.90
20155;DHT22;10238;49.556;10.956;2024-01-25T07:38:00;5.50;99.90
20155;DHT22;10238;49.556;10.956;2024-01-25T07:40:50;5.50;99.90
20155;DHT22;10238;49.556;10.956;2024-01-25T07:43:39;5.50;99.90
20155;DHT22;10238;49.556;10.956;2024-01-25T07:46:28;5.50;99.90
20155;DHT22;10238;49.556;10.956;2024-01-25T07:49:16;5.50;99.90
20155;DHT22;10238;49.556;10.956;2024-01-25T07:52:04;5.50;99.90
20155;DHT22;10238;49.556;10.956;2024-01-25T07:54:52;5.60;99.90
20155;DHT22;10238;49.556;10.956;2024-01-25T07:57:40;5.60;99.90
20155;DHT22;10238;49.556;10.956;2024-01-25T08:00:29;5.60;99.90
20155;DHT22;10238;49.556;10.956;2024-01-25T08:03:17;5.60;99.90
20155;DHT22;10238;49.556;10.956;2024-01-25T08:06:05;5.60;99.90
20155;DHT22;10238;49.556;10.956;2024-01-25T08:08:54;5.60;99.90
20155;DHT22;10238;49.556;10.956;2024-01-25T08:11:42;5.60;99.90
20155;DHT22;10238;49.556;10.956;2024-01-25T08:14:33;5.60;99.90
20155;DHT22;10238;49.556;10.956;2024-01-25T08:17:22;5.60;99.90
20155;DHT22;10238;49.556;10.956;2024-01-25T08:20:12;5.60;99.90
20155;DHT22;10238;49.556;10.956;2024-01-25T08:23:22;5.60;99.90
20155;DHT22;10238;49.556;10.956;2024-01-25T08:26:14;5.70;99.90
20155;DHT22;10238;49.556;10.956;2024-01-25T08:29:02;5.70;99.90
20155;DHT22;10238;49.556;10.956;2024-01-25T08:31:50;5.70;99.90
20155;DHT22;10238;49.556;10.956;2024-01-25T08:34:39;5.70;99.90
20155;DHT22;10238;49.556;10.956;2024-01-25T08:37:27;5.70;99.90
20155;DHT22;10238;49.556;10.956;2024-01-25T08:40:15;5.70;99.90
20155;DHT22;10238;49.556;10.956;2024-01-25T08:43:03;5.80;99.90
20155;DHT22;10238;49.556;10.956;2024-01-25T08:45:51;5.80;99.90
20155;DHT22;10238;49.556;10.956;2024-01-25T08:48:39;5.80;99.90
20155;DHT22;10238;49.556;10.956;2024-01-25T08:51:28;5.80;99.90
20155;DHT22;10238;49.556;10.956;2024-01-25T08:54:17;5.90;99.90
20155;DHT22;10238;49.556;10.956;2024-01-25T08:57:05;6.00;99.90
20155;DHT22;10238;49.556;10.956;2024-01-25T08:59:52;6.00;99.90
20155;DHT22;10238;49.556;10.956;2024-01-25T09:02:41;6.00;99.90
20155;DHT22;10238;49.556;10.956;2024-01-25T09:05:28;6.10;99.90
20155;DHT22;10238;49.556;10.956;2024-01-25T09:08:19;6.10;99.90
20155;DHT22;10238;49.556;10.956;2024-01-25T09:11:07;6.10;99.90
20155;DHT22;10238;49.556;10.956;2024-01-25T09:13:56;6.20;99.90
20155;DHT22;10238;49.556;10.956;2024-01-25T09:16:44;6.20;99.90
20155;DHT22;10238;49.556;10.956;2024-01-25T09:19:31;6.30;99.90
20155;DHT22;10238;49.556;10.956;2024-01-25T09:22:19;6.40;99.90
20155;DHT22;10238;49.556;10.956;2024-01-25T09:25:08;6.40;99.90
20155;DHT22;10238;49.556;10.956;2024-01-25T09:27:56;6.50;99.90
20155;DHT22;10238;49.556;10.956;2024-01-25T09:30:44;6.60;99.90
20155;DHT22;10238;49.556;10.956;2024-01-25T09:33:33;6.60;99.90
20155;DHT22;10238;49.556;10.956;2024-01-25T09:36:21;6.60;99.90
20155;DHT22;10238;49.556;10.956;2024-01-25T09:39:09;6.70;99.90
20155;DHT22;10238;49.556;10.956;2024-01-25T09:41:58;6.80;99.90
20155;DHT22;10238;49.556;10.956;2024-01-25T09:44:46;6.80;99.90
20155;DHT22;10238;49.556;10.956;2024-01-25T09:47:34;6.90;99.90
20155;DHT22;10238;49.556;10.956;2024-01-25T09:50:22;7.00;99.90
20155;DHT22;10238;49.556;10.956;2024-01-25T09:53:14;7.10;99.90
20155;DHT22;10238;49.556;10.956;2024-01-25T09:56:09;7.10;99.90
20155;DHT22;10238;49.556;10.956;2024-01-25T09:59:01;7.20;99.90
20155;DHT22;10238;49.556;10.956;2024-01-25T10:01:52;7.20;99.90
20155;DHT22;10238;49.556;10.956;2024-01-25T10:04:41;7.30;99.90
20155;DHT22;10238;49.556;10.956;2024-01-25T10:07:39;7.30;99.90
20155;DHT22;10238;49.556;10.956;2024-01-25T10:10:32;7.30;99.90
20155;DHT22;10238;49.556;10.956;2024-01-25T10:13:20;7.40;99.90
20155;DHT22;10238;49.556;10.956;2024-01-25T10:16:12;7.50;99.90
20155;DHT22;10238;49.556;10.956;2024-01-25T10:19:01;7.60;99.90
20155;DHT22;10238;49.556;10.956;2024-01-25T10:21:54;7.70;99.90
20155;DHT22;10238;49.556;10.956;2024-01-25T10:24:44;7.80;99.90
20155;DHT22;10238;49.556;10.956;2024-01-25T10:27:32;7.80;99.90
20155;DHT22;10238;49.556;10.956;2024-01-25T10:30:20;7.90;99.90
20155;DHT22;10238;49.556;10.956;2024-01-25T10:33:09;7.90;99.90
20155;DHT22;10238;49.556;10.956;2024-01-25T10:35:58;7.90;99.90
20155;DHT22;10238;49.556;10.956;2024-01-25T10:38:49;8.00;99.90
20155;DHT22;10238;49.556;10.956;2024-01-25T10:41:47;8.10;99.90
20155;DHT22;10238;49.556;10.956;2024-01-25T10:44:39;8.10;99.90
20155;DHT22;10238;49.556;10.956;2024-01-25T10:47:27;8.20;99.90
20155;DHT22;10238;49.556;10.956;2024-01-25T10:50:21;8.30;99.90
20155;DHT22;10238;49.556;10.956;2024-01-25T10:56:01;8.50;99.90
20155;DHT22;10238;49.556;10.956;2024-01-25T10:58:50;8.70;99.90
20155;DHT22;10238;49.556;10.956;2024-01-25T11:01:37;8.70;99.90
20155;DHT22;10238;49.556;10.956;2024-01-25T11:04:25;8.80;99.90
20155;DHT22;10238;49.556;10.956;2024-01-25T11:07:17;8.80;99.90
20155;DHT22;10238;49.556;10.956;2024-01-25T11:10:06;8.80;99.90
20155;DHT22;10238;49.556;10.956;2024-01-25T11:13:01;8.90;99.90
20155;DHT22;10238;49.556;10.956;2024-01-25T11:15:50;8.80;99.90
20155;DHT22;10238;49.556;10.956;2024-01-25T11:18:47;8.90;99.90
20155;DHT22;10238;49.556;10.956;2024-01-25T11:21:41;9.00;99.90
20155;DHT22;10238;49.556;10.956;2024-01-25T11:24:31;9.00;99.90
20155;DHT22;10238;49.556;10.956;2024-01-25T11:27:25;9.10;99.90
20155;DHT22;10238;49.556;10.956;2024-01-25T11:30:13;9.10;99.90
20155;DHT22;10238;49.556;10.956;2024-01-25T11:33:04;9.10;99.90
20155;DHT22;10238;49.556;10.956;2024-01-25T11:35:54;9.10;99.90
20155;DHT22;10238;49.556;10.956;2024-01-25T11:38:42;9.10;99.90
20155;DHT22;10238;49.556;10.956;2024-01-25T11:41:32;9.10;99.90
20155;DHT22;10238;49.556;10.956;2024-01-25T11:44:20;9.20;99.90
20155;DHT22;10238;49.556;10.956;2024-01-25T11:47:10;9.20;99.90
20155;DHT22;10238;49.556;10.956;2024-01-25T11:49:57;9.20;99.90
20155;DHT22;10238;49.556;10.956;2024-01-25T11:52:45;9.30;99.90
20155;DHT22;10238;49.556;10.956;2024-01-25T11:55:33;9.30;99.90
20155;DHT22;10238;49.556;10.956;2024-01-25T11:58:22;9.30;99.90
20155;DHT22;10238;49.556;10.956;2024-01-25T12:01:12;9.40;99.90
20155;DHT22;10238;49.556;10.956;2024-01-25T12:04:01;9.40;99.90
20155;DHT22;10238;49.556;10.956;2024-01-25T12:06:51;9.40;99.90
20155;DHT22;10238;49.556;10.956;2024-01-25T12:09:39;9.40;99.90
20155;DHT22;10238;49.556;10.956;2024-01-25T12:12:27;9.30;99.90
20155;DHT22;10238;49.556;10.956;2024-01-25T12:15:17;9.40;99.90
20155;DHT22;10238;49.556;10.956;2024-01-25T12:18:06;9.40;99.90
20155;DHT22;10238;49.556;10.956;2024-01-25T12:20:54;9.30;99.90
20155;DHT22;10238;49.556;10.956;2024-01-25T12:23:43;9.30;99.90
20155;DHT22;10238;49.556;10.956;2024-01-25T12:26:34;9.30;99.90
20155;DHT22;10238;49.556;10.956;2024-01-25T12:29:22;9.20;99.90
20155;DHT22;10238;49.556;10.956;2024-01-25T12:32:11;9.20;99.90
20155;DHT22;10238;49.556;10.956;2024-01-25T12:35:01;9.20;99.90
20155;DHT22;10238;49.556;10.956;2024-01-25T12:37:50;9.20;99.90
20155;DHT22;10238;49.556;10.956;2024-01-25T12:40:38;9.20;99.90
20155;DHT22;10238;49.556;10.956;2024-01-25T12:43:26;9.30;99.90
20155;DHT22;10238;49.556;10.956;2024-01-25T12:46:14;9.30;99.90
20155;DHT22;10238;49.556;10.956;2024-01-25T12:49:15;9.30;99.90
20155;DHT22;10238;49.556;10.956;2024-01-25T12:52:03;9.30;99.90
20155;DHT22;10238;49.556;10.956;2024-01-25T12:54:52;9.30;99.90
20155;DHT22;10238;49.556;10.956;2024-01-25T12:57:42;9.30;99.90
20155;DHT22;10238;49.556;10.956;2024-01-25T13:00:31;9.30;99.90
20155;DHT22;10238;49.556;10.956;2024-01-25T13:03:20;9.20;99.90
20155;DHT22;10238;49.556;10.956;2024-01-25T13:06:10;9.20;99.90
20155;DHT22;10238;49.556;10.956;2024-01-25T13:08:58;9.20;99.90
20155;DHT22;10238;49.556;10.956;2024-01-25T13:11:46;9.30;99.90
20155;DHT22;10238;49.556;10.956;2024-01-25T13:14:37;9.20;99.90
20155;DHT22;10238;49.556;10.956;2024-01-25T13:17:26;9.20;99.90
20155;DHT22;10238;49.556;10.956;2024-01-25T13:20:14;9.20;99.90
20155;DHT22;10238;49.556;10.956;2024-01-25T13:23:04;9.20;99.90
20155;DHT22;10238;49.556;10.956;2024-01-25T13:25:53;9.10;99.90
20155;DHT22;10238;49.556;10.956;2024-01-25T13:28:40;9.10;99.90
20155;DHT22;10238;49.556;10.956;2024-01-25T13:31:28;9.10;99.90
20155;DHT22;10238;49.556;10.956;2024-01-25T13:34:15;9.10;99.90
20155;DHT22;10238;49.556;10.956;2024-01-25T13:37:03;9.10;99.90
20155;DHT22;10238;49.556;10.956;2024-01-25T13:39:52;9.10;99.90
20155;DHT22;10238;49.556;10.956;2024-01-25T13:42:40;9.00;99.90
20155;DHT22;10238;49.556;10.956;2024-01-25T13:45:29;9.10;99.90
20155;DHT22;10238;49.556;10.956;2024-01-25T13:48:17;9.10;99.90
20155;DHT22;10238;49.556;10.956;2024-01-25T13:51:05;9.10;99.90
20155;DHT22;10238;49.556;10.956;2024-01-25T13:53:53;9.10;99.90
20155;DHT22;10238;49.556;10.956;2024-01-25T13:56:41;9.10;99.90
20155;DHT22;10238;49.556;10.956;2024-01-25T13:59:29;9.10;99.90
20155;DHT22;10238;49.556;10.956;2024-01-25T14:02:16;9.10;99.90
20155;DHT22;10238;49.556;10.956;2024-01-25T14:05:05;9.00;99.90
20155;DHT22;10238;49.556;10.956;2024-01-25T14:07:53;9.00;99.90
20155;DHT22;10238;49.556;10.956;2024-01-25T14:10:42;9.00;99.90
20155;DHT22;10238;49.556;10.956;2024-01-25T14:13:33;9.00;99.90
20155;DHT22;10238;49.556;10.956;2024-01-25T14:16:21;8.90;99.90
20155;DHT22;10238;49.556;10.956;2024-01-25T14:19:10;8.90;99.90
20155;DHT22;10238;49.556;10.956;2024-01-25T14:22:00;8.90;99.90
20155;DHT22;10238;49.556;10.956;2024-01-25T14:25:10;8.90;99.90
20155;DHT22;10238;49.556;10.956;2024-01-25T14:27:59;8.80;99.90
20155;DHT22;10238;49.556;10.956;2024-01-25T14:30:49;8.70;99.90
20155;DHT22;10238;49.556;10.956;2024-01-25T14:33:36;8.70;99.90
20155;DHT22;10238;49.556;10.956;2024-01-25T14:36:29;8.70;99.90
20155;DHT22;10238;49.556;10.956;2024-01-25T14:39:16;8.60;99.90
20155;DHT22;10238;49.556;10.956;2024-01-25T14:42:08;8.60;99.90
20155;DHT22;10238;49.556;10.956;2024-01-25T14:44:56;8.60;99.90
20155;DHT22;10238;49.556;10.956;2024-01-25T14:47:46;8.60;99.90
20155;DHT22;10238;49.556;10.956;2024-01-25T14:50:33;8.50;99.90
20155;DHT22;10238;49.556;10.956;2024-01-25T14:53:21;8.40;99.90
20155;DHT22;10238;49.556;10.956;2024-01-25T14:56:11;8.40;99.90
20155;DHT22;10238;49.556;10.956;2024-01-25T14:58:59;8.40;99.90
20155;DHT22;10238;49.556;10.956;2024-01-25T15:01:47;8.30;99.90
20155;DHT22;10238;49.556;10.956;2024-01-25T15:04:36;8.30;99.90
20155;DHT22;10238;49.556;10.956;2024-01-25T15:07:24;8.20;99.90
20155;DHT22;10238;49.556;10.956;2024-01-25T15:10:12;8.20;99.90
20155;DHT22;10238;49.556;10.956;2024-01-25T15:13:02;8.10;99.90
20155;DHT22;10238;49.556;10.956;2024-01-25T15:15:50;8.00;99.90
20155;DHT22;10238;49.556;10.956;2024-01-25T15:18:38;8.00;99.90
20155;DHT22;10238;49.556;10.956;2024-01-25T15:21:27;7.90;99.90
20155;DHT22;10238;49.556;10.956;2024-01-25T15:24:16;7.90;99.90
20155;DHT22;10238;49.556;10.956;2024-01-25T15:27:05;7.80;99.90
20155;DHT22;10238;49.556;10.956;2024-01-25T15:29:53;7.70;99.90
20155;DHT22;10238;49.556;10.956;2024-01-25T15:32:41;7.60;99.90
20155;DHT22;10238;49.556;10.956;2024-01-25T15:35:32;7.50;99.90
20155;DHT22;10238;49.556;10.956;2024-01-25T15:38:21;7.50;99.90
20155;DHT22;10238;49.556;10.956;2024-01-25T15:41:10;7.30;99.90
20155;DHT22;10238;49.556;10.956;2024-01-25T15:43:57;7.20;99.90
20155;DHT22;10238;49.556;10.956;2024-01-25T15:46:45;7.20;99.90
20155;DHT22;10238;49.556;10.956;2024-01-25T15:49:32;7.10;99.90
20155;DHT22;10238;49.556;10.956;2024-01-25T15:52:20;7.00;99.90
20155;DHT22;10238;49.556;10.956;2024-01-25T15:55:10;7.00;99.90
20155;DHT22;10238;49.556;10.956;2024-01-25T15:57:57;6.90;99.90
20155;DHT22;10238;49.556;10.956;2024-01-25T16:00:46;6.80;99.90
20155;DHT22;10238;49.556;10.956;2024-01-25T16:03:33;6.70;99.90
20155;DHT22;10238;49.556;10.956;2024-01-25T16:06:21;6.60;99.90
20155;DHT22;10238;49.556;10.956;2024-01-25T16:09:09;6.50;99.90
20155;DHT22;10238;49.556;10.956;2024-01-25T16:12:01;6.40;99.90
20155;DHT22;10238;49.556;10.956;2024-01-25T16:14:48;6.30;99.90
20155;DHT22;10238;49.556;10.956;2024-01-25T16:17:36;6.20;99.90
20155;DHT22;10238;49.556;10.956;2024-01-25T16:20:26;6.20;99.90
20155;DHT22;10238;49.556;10.956;2024-01-25T16:23:13;6.10;99.90
20155;DHT22;10238;49.556;10.956;2024-01-25T16:26:03;6.00;99.90
20155;DHT22;10238;49.556;10.956;2024-01-25T16:28:52;5.90;99.90
20155;DHT22;10238;49.556;10.956;2024-01-25T16:31:42;5.90;99.90
20155;DHT22;10238;49.556;10.956;2024-01-25T16:34:29;5.80;99.90
20155;DHT22;10238;49.556;10.956;2024-01-25T16:37:17;5.70;99.90
20155;DHT22;10238;49.556;10.956;2024-01-25T16:40:06;5.60;99.90
20155;DHT22;10238;49.556;10.956;2024-01-25T16:42:57;5.50;99.90
20155;DHT22;10238;49.556;10.956;2024-01-25T16:45:46;5.50;99.90
20155;DHT22;10238;49.556;10.956;2024-01-25T16:48:34;5.40;99.90
20155;DHT22;10238;49.556;10.956;2024-01-25T16:51:32;5.30;99.90
20155;DHT22;10238;49.556;10.956;2024-01-25T16:54:20;5.30;99.90
20155;DHT22;10238;49.556;10.956;2024-01-25T16:57:07;5.20;99.90
20155;DHT22;10238;49.556;10.956;2024-01-25T16:59:55;5.20;99.90
20155;DHT22;10238;49.556;10.956;2024-01-25T17:02:44;5.10;99.90
20155;DHT22;10238;49.556;10.956;2024-01-25T17:05:31;5.10;99.90
20155;DHT22;10238;49.556;10.956;2024-01-25T17:08:19;5.00;99.90
20155;DHT22;10238;49.556;10.956;2024-01-25T17:11:07;4.90;99.90
20155;DHT22;10238;49.556;10.956;2024-01-25T17:13:54;4.90;99.90
20155;DHT22;10238;49.556;10.956;2024-01-25T17:16:42;4.80;99.90
20155;DHT22;10238;49.556;10.956;2024-01-25T17:19:31;4.70;99.90
20155;DHT22;10238;49.556;10.956;2024-01-25T17:22:19;4.70;99.90
20155;DHT22;10238;49.556;10.956;2024-01-25T17:25:07;4.60;99.90
20155;DHT22;10238;49.556;10.956;2024-01-25T17:27:54;4.60;99.90
20155;DHT22;10238;49.556;10.956;2024-01-25T17:30:42;4.60;99.90
20155;DHT22;10238;49.556;10.956;2024-01-25T17:33:30;4.60;99.90
20155;DHT22;10238;49.556;10.956;2024-01-25T17:36:20;4.50;99.90
20155;DHT22;10238;49.556;10.956;2024-01-25T17:39:08;4.50;99.90
20155;DHT22;10238;49.556;10.956;2024-01-25T17:41:56;4.50;99.90
20155;DHT22;10238;49.556;10.956;2024-01-25T17:44:44;4.50;99.90
20155;DHT22;10238;49.556;10.956;2024-01-25T17:47:31;4.50;99.90
20155;DHT22;10238;49.556;10.956;2024-01-25T17:50:20;4.40;99.90